Date,TemperatureHighF,TemperatureAvgF,TemperatureLowF,DewpointHighF,DewpointAvgF,DewpointLowF,HumidityHigh,HumidityAvg,HumidityLow,PressureMaxIn,PressureMinIn,WindSpeedMaxMPH,WindSpeedAvgMPH,GustSpeedMaxMPH,PrecipitationSumIn
2013-6-15,62.0,62.0,62.0,-99.9,-99.9,-99.9,0,0,100,0.00,40.00,4,4,0,0.00
2013-6-25,65.0,65.0,65.0,-99.9,-99.9,-99.9,0,0,100,0.00,40.00,3,3,0,0.00
2013-7-8,57.0,57.0,57.0,-99.9,-99.9,-99.9,0,0,100,0.00,40.00,3,3,0,0.00
2013-7-20,56.0,56.0,56.0,-99.9,-99.9,-99.9,0,0,100,0.00,40.00,3,3,0,0.00
2013-7-24,68.0,68.0,68.0,-99.9,-99.9,-99.9,0,0,100,0.00,40.00,2,2,0,0.00
2013-8-12,76.0,67.2,62.0,-99.9,-99.9,-99.9,0,0,100,0.00,40.00,7,5,0,0.00
2013-8-13,70.0,61.6,57.0,-99.9,-99.9,-99.9,0,0,100,0.00,40.00,7,4,0,0.00
2013-8-14,75.0,63.0,58.0,-99.9,-99.9,-99.9,0,0,100,0.00,40.00,4,2,0,0.00
2013-8-15,67.0,61.1,62.0,-99.9,-99.9,-99.9,0,0,100,0.00,40.00,3,2,0,0.00
2013-8-16,69.0,62.6,61.0,-99.9,-99.9,-99.9,0,0,100,0.00,40.00,4,2,0,0.00
2013-8-17,76.0,65.6,62.0,-99.9,-99.9,-99.9,0,0,100,0.00,40.00,6,4,0,0.00
2013-8-18,75.0,63.9,58.0,-99.9,-99.9,-99.9,0,0,100,0.00,40.00,9,4,0,0.00
2013-8-19,74.0,63.4,59.0,-99.9,-99.9,-99.9,0,0,100,0.00,40.00,9,3,0,0.00
2013-8-20,62.0,60.7,58.0,-99.9,-99.9,-99.9,0,0,100,0.00,40.00,7,6,0,0.00
2013-8-21,70.0,34.7,56.0,-99.9,-99.9,-99.9,0,0,100,0.00,40.00,10,6,0,0.00
2013-8-22,-200.0,0.0,200.0,-99.9,-99.9,-99.9,0,0,100,0.00,40.00,4,3,0,0.00
2013-8-23,74.0,29.1,62.0,-99.9,-99.9,-99.9,0,0,100,0.00,40.00,4,4,0,0.00
2013-8-24,71.0,64.7,61.0,-99.9,-99.9,-99.9,0,0,100,0.00,40.00,5,4,0,0.00
2013-8-25,67.0,64.2,57.0,-99.9,-99.9,-99.9,0,0,100,0.00,40.00,4,3,0,0.00
2013-8-26,63.0,62.0,61.0,-99.9,-99.9,-99.9,0,0,100,0.00,40.00,3,2,0,0.00
2013-8-27,63.0,62.0,61.0,-99.9,-99.9,-99.9,0,0,100,0.00,40.00,4,2,0,0.00
2013-8-28,77.0,71.0,67.0,-99.9,-99.9,-99.9,0,0,100,0.00,40.00,2,2,0,0.00
2013-8-29,68.0,65.7,64.0,-99.9,-99.9,-99.9,0,0,100,0.00,40.00,5,4,0,0.00
2013-8-30,77.0,68.3,64.0,-99.9,-99.9,-99.9,0,0,100,0.00,40.00,9,5,0,0.00
2013-8-31,74.0,63.0,58.0,-99.9,-99.9,-99.9,0,0,100,0.00,40.00,8,5,0,0.00
2013-9-1,66.0,61.8,59.0,-99.9,-99.9,-99.9,0,0,100,0.00,40.00,3,2,0,0.00
2013-9-2,77.0,70.0,65.0,-99.9,-99.9,-99.9,0,0,100,0.00,40.00,4,3,0,0.00
2013-9-3,72.0,63.6,61.0,-99.9,-99.9,-99.9,0,0,100,0.00,40.00,3,2,0,0.00
2013-9-4,69.0,62.3,59.0,-99.9,-99.9,-99.9,0,0,100,0.00,40.00,6,5,0,0.00
2013-9-5,60.0,59.8,59.0,-99.9,-99.9,-99.9,0,0,100,0.00,40.00,4,3,0,0.00
2013-9-6,66.0,61.7,60.0,-99.9,-99.9,-99.9,0,0,100,0.00,40.00,7,4,0,0.00
2013-9-7,71.0,63.8,60.0,-99.9,-99.9,-99.9,0,0,100,0.00,40.00,6,3,0,0.00
2013-9-8,80.0,68.8,58.0,-99.9,-99.9,-99.9,0,0,100,0.00,40.00,4,3,0,0.00
2013-9-9,59.0,59.0,59.0,-99.9,-99.9,-99.9,0,0,100,0.00,40.00,5,5,0,0.00
2013-9-10,73.0,60.9,56.0,-99.9,-99.9,-99.9,0,0,100,0.00,40.00,8,5,0,0.00
2013-9-11,86.0,73.7,64.0,-99.9,-99.9,-99.9,0,0,100,0.00,40.00,7,5,0,0.00
2013-9-12,58.0,58.0,58.0,-99.9,-99.9,-99.9,0,0,100,0.00,40.00,4,3,0,0.00
2013-9-19,74.0,62.0,50.0,-99.9,-99.9,-99.9,0,0,100,0.00,40.00,5,4,0,0.00
2013-9-28,53.0,53.0,53.0,-99.9,-99.9,-99.9,0,0,100,0.00,40.00,7,7,0,0.00
2013-9-30,51.0,51.0,51.0,-99.9,-99.9,-99.9,0,0,100,0.00,40.00,6,6,0,0.00
2013-10-4,53.0,53.0,53.0,-99.9,-99.9,-99.9,0,0,100,0.00,40.00,2,2,0,0.00
2013-10-21,47.0,47.0,47.0,-99.9,-99.9,-99.9,0,0,100,0.00,40.00,2,2,0,0.00
2013-10-22,47.0,47.0,47.0,-99.9,-99.9,-99.9,0,0,100,0.00,40.00,3,3,0,0.00
2013-12-24,44.0,44.0,44.0,-99.9,-99.9,-99.9,0,0,100,0.00,40.00,2,2,0,0.00